AirNav   Air Wisconsin pilot careers
 
 1076 users online  

62C Cindy Guntly Memorial Airport
Franksville, Wisconsin, USA

GOING TO FRANKSVILLE?


FAA INFORMATION EFFECTIVE 19 JULY 2018

Location

FAA Identifier: 62C
Lat/Long: 42-48-39.3800N / 088-05-38.5300W
42-48.656333N / 088-05.642167W
42.8109389 / -88.0940361
(estimated)
Elevation: 790 ft. / 241 m (estimated)
Variation: 01W (1985)
From city: 7 miles NW of FRANKSVILLE, WI
Time zone: UTC -5 (UTC -6 during Standard Time)
Zip code: 53126

Airport Operations

Airport use: Open to the public
Activation date: 03/1962
Control tower: no
ARTCC: CHICAGO CENTER
FSS: GREEN BAY FLIGHT SERVICE STATION
NOTAMs facility: GRB (NOTAM-D service available)
Attendance: MON-FRI 0830-1800, ALL SAT 1100-1800
Wind indicator: yes
Segmented circle: no
Lights: ACTVT LIRL RY 01/19 - CTAF.

Airport Communications

CTAF: 122.9
WX AWOS-3 at BUU (12 nm SW): 114.5 (262-757-0907)
WX ASOS at MKE (12 nm NE): PHONE 414-489-2168
WX AWOS-3PT at 57C (12 nm W): 118.125 (262-642-1845)
WX ASOS at RAC (13 nm E): 121.425 (262-635-0959)
WX ASOS at ENW (15 nm SE): PHONE 262-652-7730
WX AWOS-3 at UES (15 nm NW): 118.875 (262-521-5226)
WX AWOS-3 at MWC (18 nm N): PHONE 414-461-2954

Nearby radio navigation aids

VOR radial/distance  VOR name  Freq  Var
BUUr052/11.7BURBUN VOR/DME114.5001W
LJTr190/18.1TIMMERMAN VOR/DME112.5002W
BAEr154/20.2BADGER VOR/DME116.4002E
OBKr352/35.9NORTHBROOK VOR/DME113.0002W
BJBr179/(36.7)WEST BEND VOR109.8001W

 
NDB name  Hdg/Dist  Freq  Var  ID
LAKE LAWN075/23.040402WLVV .-.. ...- ...-
ROCK RIVER129/35.237101WRYV .-. -.-- ...-

Airport Services

Fuel available: 100LL UL94
Parking: tiedowns
Airframe service: MAJOR
Powerplant service: MAJOR
Bottled oxygen: NONE
Bulk oxygen: NONE

Runway Information

Runway 1/19

Dimensions: 2425 x 70 ft. / 739 x 21 m
Surface: turf, in fair condition
Runway edge lights: non-standard
RY 01/19 NSTD LIRL HAS 2 PAIRS OF LGTS EACH END.
RUNWAY 1  RUNWAY 19
Latitude: 42-48.482333N42-48.874167N
Longitude: 088-05.704833W088-05.600500W
Elevation: 777.0 ft.782.0 ft.
Traffic pattern: leftleft
Runway heading: 012 magnetic, 011 true192 magnetic, 191 true
Obstructions: 45 ft. tree, 90 ft. from runway, 100 ft. left of centerline, 2:1 slope to clear40 ft. tree, 100 ft. right of centerline

Runway 18/36

Dimensions: 1200 x 80 ft. / 366 x 24 m
Surface: turf, in fair condition
ROUGH & UNDULATING ROLLING TERRAIN.
RUNWAY 18  RUNWAY 36
Latitude: 42-48.710167N42-48.512667N
Longitude: 088-05.616333W088-05.625667W
Elevation: 776.0 ft.790.0 ft.
Gradient: 1.2% UP
Traffic pattern: leftleft
Runway heading: 183 magnetic, 182 true003 magnetic, 002 true
Obstructions: 45 ft. trees, 900 ft. from runway, 150 ft. right of centerline, 20:1 slope to clear50 ft. tree, 600 ft. from runway, 150 ft. right of centerline, 12:1 slope to clear

Airport Ownership and Management from official FAA records

Ownership: Privately-owned
Owner: THOMAS GUNTLY
22031 SIX MILE RD
FRANKSVILLE, WI 53126
Phone 262-895-2948
Manager: THOMAS GUNTLY
22031 SIX MILE RD
CALEDONIA, WI 53108
Phone 262-895-2948
EMAIL ADDRESS: AOLDPILOT@GMAIL.COM (ALL LOWER CASE)

Airport Operational Statistics

Aircraft based on the field: 44
Single engine airplanes: 40
Multi engine airplanes: 2
Helicopters: 1
Ultralights: 1
    
Aircraft operations: avg 128/week *
78% local general aviation
22% transient general aviation
* for 12-month period ending 24 May 2016

Additional Remarks

RY 18 & 19 GND DROPS OFF RAPIDLY AT 'S' END.

Instrument Procedures

There are no published instrument procedures at 62C.

Some nearby airports with instrument procedures:

KBUU - Burlington Municipal Airport (12 nm SW)
KMKE - General Mitchell International Airport (12 nm NE)
57C - East Troy Municipal Airport (12 nm W)
KRAC - Batten International Airport (13 nm E)
KENW - Kenosha Regional Airport (15 nm SE)
KUES - Waukesha County Airport (15 nm NW)
C02 - Grand Geneva Resort Airport (18 nm SW)
KMWC - Lawrence J Timmerman Airport (18 nm N)
 
Loc | Ops | Rwys | IFR | FBO | Links
Com | Nav | Svcs | Stats | Notes

General Mitchell International Airport
 
Area around 62C (Cindy Guntly Memorial Airport)
 
Road maps at: MapQuest Bing Google
 
Aerial photo
WARNING: Photo may not be current or correct
Aerial photo of 62C (Cindy Guntly Memorial Airport)
Photo by Amy Gesch
Photo taken 17-Oct-2005

Do you have a better or more recent aerial photo of Cindy Guntly Memorial Airport that you would like to share? If so, please send us your photo.

 
Sectional chart

 
Airport distance calculator
Flying to Cindy Guntly Memorial Airport? Find the distance to fly.

From to 62C

Sunrise and sunset
Times for 21-Jul-2018
 Local
(UTC-5)
 Zulu
(UTC)
Morning civil twilight05:0010:00
Sunrise05:3410:34
Sunset20:2401:24
Evening civil twilight20:5701:57

Current date and time
Zulu (UTC)  21-Jul-2018 14:02:40
Local (UTC-5)  21-Jul-2018 09:02:40
 
METAR
KBUU 
12nm SW 
211355Z AUTO 35011G14KT 10SM BKN016 BKN021 BKN046 22/19 A2978 RMK AO2 T02150186
KMKE 
12nm NE 
211352Z 02015G23KT 10SM SCT007 OVC026 22/19 A2977 RMK AO2 SLP077 T02170194 $
K57C 
12nm W 
211355Z AUTO 36009G14KT 10SM BKN015 BKN021 OVC044 22/19 A2979 RMK AO2 T02150190
KUES 
12nm N 
211345Z 36007G15KT 10SM BKN011 BKN017 OVC033 21/18 A2980
KRAC 
12nm E 
211353Z AUTO 36015G26KT 6SM BR BKN004 BKN017 OVC023 20/19 A2978 RMK AO2 PK WND 35026/1326 SLP080 T02000194
KENW 
15nm SE 
211353Z 01012G21KT 10SM SCT012 OVC022 21/20 A2977 RMK AO2 RAE10 SLP076 P0001 T02060200
KMWC 
19nm N 
211345Z 36009KT 10SM OVC012 21/17 A2979
TAF
KMKE 
12nm NE 
211125Z 2112/2218 36012G20KT 4SM -SHRA OVC005 FM211500 36012G20KT P6SM VCSH OVC009 FM211800 36013G22KT 6SM -SHRA OVC015 FM212100 36013G21KT 6SM -SHRA BKN025 FM220100 36014G22KT P6SM VCSH OVC020 FM220600 36013KT P6SM OVC008
KUES 
12nm N 
211125Z 2112/2212 36009KT P6SM OVC010 FM211600 36011KT P6SM VCSH OVC008 FM211800 36012KT 6SM -SHRA OVC015 FM220000 36012KT P6SM VCSH OVC020 FM220600 35010KT P6SM OVC008
KENW 
15nm SE 
211125Z 2112/2212 35012KT 3SM -RA OVC005 FM211600 36013G20KT P6SM VCSH OVC009 FM211900 36014G22KT 6SM -SHRA OVC020 FM220200 35012G20KT P6SM VCSH OVC015 FM220600 36012KT P6SM OVC008
NOTAMs
Click for the latest NOTAMs
NOTAMs are issued by the DoD/FAA and will open in a separate window not controlled by AirNav.

 

 
 

FBO, Fuel Providers, and Aircraft Ground Support

  
 Business Name 
 
 Contact 
 
 Services / Description 
 
Fuel Prices
 
Comments
  
Guntly Aircraft Repair 262-895-2948
no information available

If you are affiliated with Guntly Aircraft Repair and would like to show here your services, contact info, web link, logo, and more, click here
100LL UL94
FS $4.50 --- 
SS --- $4.00 
 Updated 08-Jul-2018
 
   write
FS=Full service
SS=Self service
Update Fuel Prices
 

Would you like to see your business listed on this page?

 If your business provides an interesting product or service to pilots, flight crews, aircraft, or users of the Cindy Guntly Memorial Airport, you should consider listing it here.  To start the listing process, click on the button below
 
Add a business
 

Other Pages about Cindy Guntly Memorial Airport

Page from the Wisconsin airport directory (PDF)
 
Update a link
 
Copyright © AirNav, LLC. All rights reserved. Privacy Policy  Contact